sensor_id;sensor_type;location;lat;lon;timestamp;pressure;altitude;pressure_sealevel;temperature;humidity
70407;BME280;57821;52.202;0.154;2023-04-02T00:00:35;101852.19;;;6.97;100.00
70407;BME280;57821;52.202;0.154;2023-04-02T00:03:06;101858.22;;;6.97;100.00
70407;BME280;57821;52.202;0.154;2023-04-02T00:08:04;101860.81;;;6.99;100.00
70407;BME280;57821;52.202;0.154;2023-04-02T00:10:50;101871.13;;;6.99;100.00
70407;BME280;57821;52.202;0.154;2023-04-02T00:13:24;101865.91;;;6.96;100.00
70407;BME280;57821;52.202;0.154;2023-04-02T00:15:55;101867.66;;;6.97;100.00
70407;BME280;57821;52.202;0.154;2023-04-02T00:18:23;101871.06;;;6.96;100.00
70407;BME280;57821;52.202;0.154;2023-04-02T00:20:59;101860.66;;;6.93;100.00
70407;BME280;57821;52.202;0.154;2023-04-02T00:23:28;101867.56;;;6.94;100.00
70407;BME280;57821;52.202;0.154;2023-04-02T00:25:54;101882.31;;;6.98;100.00
70407;BME280;57821;52.202;0.154;2023-04-02T00:28:22;101876.13;;;6.93;100.00
70407;BME280;57821;52.202;0.154;2023-04-02T00:30:52;101876.16;;;6.94;100.00
70407;BME280;57821;52.202;0.154;2023-04-02T00:33:23;101888.47;;;7.03;100.00
70407;BME280;57821;52.202;0.154;2023-04-02T00:35:52;101877.97;;;6.97;100.00
70407;BME280;57821;52.202;0.154;2023-04-02T00:38:29;101889.16;;;6.97;100.00
70407;BME280;57821;52.202;0.154;2023-04-02T00:41:05;101886.56;;;6.97;100.00
70407;BME280;57821;52.202;0.154;2023-04-02T00:43:36;101898.59;;;6.97;100.00
70407;BME280;57821;52.202;0.154;2023-04-02T00:46:09;101907.16;;;6.96;100.00
70407;BME280;57821;52.202;0.154;2023-04-02T00:48:47;101920.13;;;6.99;100.00
70407;BME280;57821;52.202;0.154;2023-04-02T00:53:47;101928.78;;;7.01;100.00
70407;BME280;57821;52.202;0.154;2023-04-02T00:56:24;101928.72;;;6.98;100.00
70407;BME280;57821;52.202;0.154;2023-04-02T00:58:52;101940.75;;;6.99;100.00
70407;BME280;57821;52.202;0.154;2023-04-02T01:01:24;101924.19;;;6.91;100.00
70407;BME280;57821;52.202;0.154;2023-04-02T01:03:56;101955.41;;;7.00;100.00
70407;BME280;57821;52.202;0.154;2023-04-02T01:06:35;101949.34;;;6.98;100.00
70407;BME280;57821;52.202;0.154;2023-04-02T01:11:55;101952.75;;;6.97;100.00
70407;BME280;57821;52.202;0.154;2023-04-02T01:17:33;101953.56;;;6.96;100.00
70407;BME280;57821;52.202;0.154;2023-04-02T01:20:23;101962.13;;;6.95;100.00
70407;BME280;57821;52.202;0.154;2023-04-02T01:22:57;101966.47;;;6.96;100.00
70407;BME280;57821;52.202;0.154;2023-04-02T01:25:53;101970.69;;;6.94;100.00
70407;BME280;57821;52.202;0.154;2023-04-02T01:29:24;101971.56;;;6.94;100.00
70407;BME280;57821;52.202;0.154;2023-04-02T01:31:31;101981.00;;;6.94;100.00
70407;BME280;57821;52.202;0.154;2023-04-02T01:33:59;101971.47;;;6.91;100.00
70407;BME280;57821;52.202;0.154;2023-04-02T01:36:58;101973.94;;;6.87;100.00
70407;BME280;57821;52.202;0.154;2023-04-02T01:44:47;101983.44;;;6.89;100.00
70407;BME280;57821;52.202;0.154;2023-04-02T01:47:17;102001.59;;;6.92;100.00
70407;BME280;57821;52.202;0.154;2023-04-02T01:49:44;101993.00;;;6.92;100.00
70407;BME280;57821;52.202;0.154;2023-04-02T01:52:15;102002.44;;;6.91;100.00
70407;BME280;57821;52.202;0.154;2023-04-02T01:54:44;101984.97;;;6.83;100.00
70407;BME280;57821;52.202;0.154;2023-04-02T01:57:11;102010.09;;;6.90;100.00
70407;BME280;57821;52.202;0.154;2023-04-02T01:59:38;102010.09;;;6.90;100.00
70407;BME280;57821;52.202;0.154;2023-04-02T02:02:10;102003.13;;;6.86;100.00
70407;BME280;57821;52.202;0.154;2023-04-02T02:04:39;102016.13;;;6.90;100.00
70407;BME280;57821;52.202;0.154;2023-04-02T02:07:14;102020.53;;;6.93;100.00
70407;BME280;57821;52.202;0.154;2023-04-02T02:09:46;102030.69;;;6.88;100.00
70407;BME280;57821;52.202;0.154;2023-04-02T02:12:14;102027.34;;;6.91;100.00
70407;BME280;57821;52.202;0.154;2023-04-02T02:14:48;102028.84;;;6.84;100.00
70407;BME280;57821;52.202;0.154;2023-04-02T02:17:18;102047.84;;;6.88;100.00
70407;BME280;57821;52.202;0.154;2023-04-02T02:19:47;102045.25;;;6.86;100.00
70407;BME280;57821;52.202;0.154;2023-04-02T02:22:25;102054.81;;;6.90;100.00
70407;BME280;57821;52.202;0.154;2023-04-02T02:24:55;102053.88;;;6.88;100.00
70407;BME280;57821;52.202;0.154;2023-04-02T02:30:00;102056.44;;;6.87;100.00
70407;BME280;57821;52.202;0.154;2023-04-02T02:32:29;102059.97;;;6.90;100.00
70407;BME280;57821;52.202;0.154;2023-04-02T02:35:03;102052.88;;;6.83;100.00
70407;BME280;57821;52.202;0.154;2023-04-02T02:37:39;102068.47;;;6.88;100.00
70407;BME280;57821;52.202;0.154;2023-04-02T02:40:20;102065.81;;;6.85;100.00
70407;BME280;57821;52.202;0.154;2023-04-02T02:43:01;102074.38;;;6.84;100.00
70407;BME280;57821;52.202;0.154;2023-04-02T02:45:34;102077.06;;;6.87;100.00
70407;BME280;57821;52.202;0.154;2023-04-02T02:48:04;102074.41;;;6.85;100.00
70407;BME280;57821;52.202;0.154;2023-04-02T02:50:35;102078.78;;;6.88;100.00
70407;BME280;57821;52.202;0.154;2023-04-02T02:53:21;102089.09;;;6.88;100.00
70407;BME280;57821;52.202;0.154;2023-04-02T02:55:51;102080.47;;;6.87;100.00
70407;BME280;57821;52.202;0.154;2023-04-02T02:58:25;102095.19;;;6.90;100.00
70407;BME280;57821;52.202;0.154;2023-04-02T03:01:02;102090.97;;;6.92;100.00
70407;BME280;57821;52.202;0.154;2023-04-02T03:03:31;102097.78;;;6.90;100.00
70407;BME280;57821;52.202;0.154;2023-04-02T03:06:04;102108.91;;;6.89;100.00
70407;BME280;57821;52.202;0.154;2023-04-02T03:08:35;102116.75;;;6.92;100.00
70407;BME280;57821;52.202;0.154;2023-04-02T03:13:38;102108.00;;;6.87;100.00
70407;BME280;57821;52.202;0.154;2023-04-02T03:16:19;102123.56;;;6.90;100.00
70407;BME280;57821;52.202;0.154;2023-04-02T03:19:01;102127.84;;;6.89;100.00
70407;BME280;57821;52.202;0.154;2023-04-02T03:29:35;102149.94;;;6.83;100.00
70407;BME280;57821;52.202;0.154;2023-04-02T03:32:22;102149.88;;;6.80;100.00
70407;BME280;57821;52.202;0.154;2023-04-02T03:34:57;102143.56;;;6.72;100.00
70407;BME280;57821;52.202;0.154;2023-04-02T03:37:33;102171.31;;;6.79;100.00
70407;BME280;57821;52.202;0.154;2023-04-02T03:40:08;102154.91;;;6.77;100.00
70407;BME280;57821;52.202;0.154;2023-04-02T03:42:50;102166.69;;;6.70;100.00
70407;BME280;57821;52.202;0.154;2023-04-02T03:45:31;102185.00;;;6.78;100.00
70407;BME280;57821;52.202;0.154;2023-04-02T03:48:11;102181.41;;;6.73;100.00
70407;BME280;57821;52.202;0.154;2023-04-02T03:53:11;102191.66;;;6.71;100.00
70407;BME280;57821;52.202;0.154;2023-04-02T03:55:39;102195.69;;;6.63;100.00
70407;BME280;57821;52.202;0.154;2023-04-02T03:58:16;102201.59;;;6.60;100.00
70407;BME280;57821;52.202;0.154;2023-04-02T04:00:59;102212.84;;;6.63;100.00
70407;BME280;57821;52.202;0.154;2023-04-02T04:03:46;102210.81;;;6.54;100.00
70407;BME280;57821;52.202;0.154;2023-04-02T04:06:32;102226.41;;;6.57;100.00
70407;BME280;57821;52.202;0.154;2023-04-02T04:14:39;102231.25;;;6.49;100.00
70407;BME280;57821;52.202;0.154;2023-04-02T04:17:24;102214.63;;;6.41;100.00
70407;BME280;57821;52.202;0.154;2023-04-02T04:19:58;102234.59;;;6.47;100.00
70407;BME280;57821;52.202;0.154;2023-04-02T04:22:28;102238.91;;;6.46;100.00
70407;BME280;57821;52.202;0.154;2023-04-02T04:25:04;102223.09;;;6.37;100.00
70407;BME280;57821;52.202;0.154;2023-04-02T04:30:23;102233.28;;;6.34;100.00
70407;BME280;57821;52.202;0.154;2023-04-02T04:33:08;102250.59;;;6.38;100.00
70407;BME280;57821;52.202;0.154;2023-04-02T04:35:44;102238.31;;;6.31;100.00
70407;BME280;57821;52.202;0.154;2023-04-02T04:38:20;102236.63;;;6.32;100.00
70407;BME280;57821;52.202;0.154;2023-04-02T04:40:54;102248.84;;;6.37;100.00
70407;BME280;57821;52.202;0.154;2023-04-02T04:46:24;102244.47;;;6.35;100.00
70407;BME280;57821;52.202;0.154;2023-04-02T04:49:04;102241.59;;;6.27;100.00
70407;BME280;57821;52.202;0.154;2023-04-02T04:52:26;102259.06;;;6.34;100.00
70407;BME280;57821;52.202;0.154;2023-04-02T04:54:37;102262.44;;;6.33;100.00
70407;BME280;57821;52.202;0.154;2023-04-02T04:57:20;102275.31;;;6.33;100.00
70407;BME280;57821;52.202;0.154;2023-04-02T04:59:56;102250.97;;;6.25;100.00
70407;BME280;57821;52.202;0.154;2023-04-02T05:02:32;102258.69;;;6.25;100.00
70407;BME280;57821;52.202;0.154;2023-04-02T05:05:02;102266.66;;;6.31;100.00
70407;BME280;57821;52.202;0.154;2023-04-02T05:07:43;102280.34;;;6.30;100.00
70407;BME280;57821;52.202;0.154;2023-04-02T05:10:23;102279.31;;;6.25;100.00
70407;BME280;57821;52.202;0.154;2023-04-02T05:13:02;102290.66;;;6.30;100.00
70407;BME280;57821;52.202;0.154;2023-04-02T05:15:36;102286.22;;;6.26;100.00
70407;BME280;57821;52.202;0.154;2023-04-02T05:18:31;102298.38;;;6.30;100.00
70407;BME280;57821;52.202;0.154;2023-04-02T05:27:01;102299.03;;;6.25;100.00
70407;BME280;57821;52.202;0.154;2023-04-02T05:29:34;102308.44;;;6.24;100.00
70407;BME280;57821;52.202;0.154;2023-04-02T05:32:12;102323.25;;;6.30;100.00
70407;BME280;57821;52.202;0.154;2023-04-02T05:34:47;102319.63;;;6.25;100.00
70407;BME280;57821;52.202;0.154;2023-04-02T05:37:26;102333.63;;;6.31;100.00
70407;BME280;57821;52.202;0.154;2023-04-02T05:39:59;102321.41;;;6.26;100.00
70407;BME280;57821;52.202;0.154;2023-04-02T05:42:34;102340.41;;;6.29;100.00
70407;BME280;57821;52.202;0.154;2023-04-02T05:45:31;102338.72;;;6.30;100.00
70407;BME280;57821;52.202;0.154;2023-04-02T05:48:10;102336.97;;;6.29;100.00
70407;BME280;57821;52.202;0.154;2023-04-02T05:50:43;102346.41;;;6.28;100.00
70407;BME280;57821;52.202;0.154;2023-04-02T05:53:27;102353.19;;;6.26;100.00
70407;BME280;57821;52.202;0.154;2023-04-02T05:55:57;102358.56;;;6.32;100.00
70407;BME280;57821;52.202;0.154;2023-04-02T05:58:37;102371.28;;;6.28;100.00
70407;BME280;57821;52.202;0.154;2023-04-02T06:06:57;102375.91;;;6.36;100.00
70407;BME280;57821;52.202;0.154;2023-04-02T06:14:34;102403.56;;;6.40;100.00
70407;BME280;57821;52.202;0.154;2023-04-02T06:17:02;102407.06;;;6.42;100.00
70407;BME280;57821;52.202;0.154;2023-04-02T06:19:33;102408.91;;;6.45;100.00
70407;BME280;57821;52.202;0.154;2023-04-02T06:24:50;102407.06;;;6.42;100.00
70407;BME280;57821;52.202;0.154;2023-04-02T06:27:22;102417.53;;;6.47;100.00
70407;BME280;57821;52.202;0.154;2023-04-02T06:29:57;102405.28;;;6.41;100.00
70407;BME280;57821;52.202;0.154;2023-04-02T06:32:28;102427.91;;;6.48;100.00
70407;BME280;57821;52.202;0.154;2023-04-02T06:34:56;102434.03;;;6.50;100.00
70407;BME280;57821;52.202;0.154;2023-04-02T06:39:59;102430.56;;;6.50;100.00
70407;BME280;57821;52.202;0.154;2023-04-02T06:42:37;102427.81;;;6.45;100.00
70407;BME280;57821;52.202;0.154;2023-04-02T06:45:38;102454.81;;;6.55;100.00
70407;BME280;57821;52.202;0.154;2023-04-02T06:48:16;102436.47;;;6.47;100.00
70407;BME280;57821;52.202;0.154;2023-04-02T06:50:59;102441.63;;;6.47;100.00
70407;BME280;57821;52.202;0.154;2023-04-02T06:53:38;102455.69;;;6.55;100.00
70407;BME280;57821;52.202;0.154;2023-04-02T06:58:49;102465.19;;;6.56;100.00
70407;BME280;57821;52.202;0.154;2023-04-02T07:01:23;102463.28;;;6.52;100.00
70407;BME280;57821;52.202;0.154;2023-04-02T07:03:50;102472.16;;;6.59;100.00
70407;BME280;57821;52.202;0.154;2023-04-02T07:06:23;102474.06;;;6.63;100.00
70407;BME280;57821;52.202;0.154;2023-04-02T07:08:52;102478.34;;;6.64;100.00
70407;BME280;57821;52.202;0.154;2023-04-02T07:11:23;102477.53;;;6.65;100.00
70407;BME280;57821;52.202;0.154;2023-04-02T07:13:52;102475.97;;;6.69;100.00
70407;BME280;57821;52.202;0.154;2023-04-02T07:16:23;102483.81;;;6.72;100.00
70407;BME280;57821;52.202;0.154;2023-04-02T07:18:52;102488.97;;;6.72;100.00
70407;BME280;57821;52.202;0.154;2023-04-02T07:21:18;102495.09;;;6.74;100.00
70407;BME280;57821;52.202;0.154;2023-04-02T07:23:46;102496.84;;;6.75;100.00
70407;BME280;57821;52.202;0.154;2023-04-02T07:26:21;102488.09;;;6.71;100.00
70407;BME280;57821;52.202;0.154;2023-04-02T07:28:48;102506.53;;;6.80;100.00
70407;BME280;57821;52.202;0.154;2023-04-02T07:31:18;102513.47;;;6.83;100.00
70407;BME280;57821;52.202;0.154;2023-04-02T07:33:46;102509.34;;;6.86;100.00
70407;BME280;57821;52.202;0.154;2023-04-02T07:36:19;102515.47;;;6.90;100.00
70407;BME280;57821;52.202;0.154;2023-04-02T07:38:52;102521.63;;;6.93;100.00
70407;BME280;57821;52.202;0.154;2023-04-02T07:41:20;102529.44;;;6.95;100.00
70407;BME280;57821;52.202;0.154;2023-04-02T07:43:46;102525.16;;;6.95;100.00
70407;BME280;57821;52.202;0.154;2023-04-02T07:46:15;102530.44;;;6.98;100.00
70407;BME280;57821;52.202;0.154;2023-04-02T07:48:43;102536.53;;;7.00;100.00
70407;BME280;57821;52.202;0.154;2023-04-02T07:51:23;102525.28;;;6.98;100.00
70407;BME280;57821;52.202;0.154;2023-04-02T07:53:51;102537.59;;;7.06;100.00
70407;BME280;57821;52.202;0.154;2023-04-02T07:56:18;102538.53;;;7.08;100.00
70407;BME280;57821;52.202;0.154;2023-04-02T07:58:45;102545.53;;;7.10;100.00
70407;BME280;57821;52.202;0.154;2023-04-02T08:01:17;102556.09;;;7.16;100.00
70407;BME280;57821;52.202;0.154;2023-04-02T08:03:49;102551.09;;;7.21;100.00
70407;BME280;57821;52.202;0.154;2023-04-02T08:06:22;102550.38;;;7.25;100.00
70407;BME280;57821;52.202;0.154;2023-04-02T08:08:49;102556.59;;;7.30;100.00
70407;BME280;57821;52.202;0.154;2023-04-02T08:11:16;102551.50;;;7.31;100.00
70407;BME280;57821;52.202;0.154;2023-04-02T08:13:43;102560.41;;;7.39;100.00
70407;BME280;57821;52.202;0.154;2023-04-02T08:16:12;102553.72;;;7.45;100.00
70407;BME280;57821;52.202;0.154;2023-04-02T08:18:41;102554.78;;;7.50;100.00
70407;BME280;57821;52.202;0.154;2023-04-02T08:21:09;102568.88;;;7.59;100.00
70407;BME280;57821;52.202;0.154;2023-04-02T08:23:36;102577.75;;;7.66;100.00
70407;BME280;57821;52.202;0.154;2023-04-02T08:26:04;102583.94;;;7.71;100.00
70407;BME280;57821;52.202;0.154;2023-04-02T08:28:31;102587.47;;;7.73;100.00
70407;BME280;57821;52.202;0.154;2023-04-02T08:30:57;102595.38;;;7.77;100.00
70407;BME280;57821;52.202;0.154;2023-04-02T08:33:24;102598.13;;;7.82;100.00
70407;BME280;57821;52.202;0.154;2023-04-02T08:35:50;102599.19;;;7.87;100.00
70407;BME280;57821;52.202;0.154;2023-04-02T08:38:19;102601.88;;;7.90;100.00
70407;BME280;57821;52.202;0.154;2023-04-02T08:40:51;102596.59;;;7.87;100.00
70407;BME280;57821;52.202;0.154;2023-04-02T08:46:44;102618.50;;;7.97;100.00
70407;BME280;57821;52.202;0.154;2023-04-02T08:49:14;102611.66;;;7.99;100.00
70407;BME280;57821;52.202;0.154;2023-04-02T08:51:43;102608.25;;;8.00;100.00
70407;BME280;57821;52.202;0.154;2023-04-02T08:54:17;102629.22;;;8.07;100.00
70407;BME280;57821;52.202;0.154;2023-04-02T08:57:14;102634.44;;;8.09;100.00
70407;BME280;57821;52.202;0.154;2023-04-02T08:59:44;102645.66;;;8.09;100.00
70407;BME280;57821;52.202;0.154;2023-04-02T09:02:21;102649.06;;;8.08;100.00
70407;BME280;57821;52.202;0.154;2023-04-02T09:04:50;102657.69;;;8.09;100.00
70407;BME280;57821;52.202;0.154;2023-04-02T09:07:17;102656.84;;;8.10;100.00
70407;BME280;57821;52.202;0.154;2023-04-02T09:09:46;102652.47;;;8.07;100.00
70407;BME280;57821;52.202;0.154;2023-04-02T09:17:40;102658.81;;;8.17;100.00
70407;BME280;57821;52.202;0.154;2023-04-02T09:20:24;102665.81;;;8.19;100.00
70407;BME280;57821;52.202;0.154;2023-04-02T09:22:52;102674.69;;;8.26;100.00
70407;BME280;57821;52.202;0.154;2023-04-02T09:25:22;102664.44;;;8.29;100.00
70407;BME280;57821;52.202;0.154;2023-04-02T09:27:52;102660.88;;;8.25;100.00
70407;BME280;57821;52.202;0.154;2023-04-02T09:35:22;102688.47;;;8.49;100.00
70407;BME280;57821;52.202;0.154;2023-04-02T09:38:27;102696.44;;;8.55;100.00
70407;BME280;57821;52.202;0.154;2023-04-02T09:43:37;102684.41;;;8.57;100.00
70407;BME280;57821;52.202;0.154;2023-04-02T09:48:59;102691.63;;;8.65;100.00
70407;BME280;57821;52.202;0.154;2023-04-02T09:51:31;102681.16;;;8.62;100.00
70407;BME280;57821;52.202;0.154;2023-04-02T09:56:32;102700.50;;;8.74;100.00
70407;BME280;57821;52.202;0.154;2023-04-02T10:09:59;102713.53;;;9.00;100.00
70407;BME280;57821;52.202;0.154;2023-04-02T10:12:29;102710.94;;;9.00;100.00
70407;BME280;57821;52.202;0.154;2023-04-02T10:15:02;102709.47;;;9.08;100.00
70407;BME280;57821;52.202;0.154;2023-04-02T10:17:35;102714.03;;;9.16;100.00
70407;BME280;57821;52.202;0.154;2023-04-02T10:20:16;102729.13;;;9.29;99.61
70407;BME280;57821;52.202;0.154;2023-04-02T10:22:44;102731.78;;;9.30;98.54
70407;BME280;57821;52.202;0.154;2023-04-02T10:25:15;102732.75;;;9.34;98.23
70407;BME280;57821;52.202;0.154;2023-04-02T10:30:22;102743.44;;;9.43;97.36
70407;BME280;57821;52.202;0.154;2023-04-02T10:33:24;102758.97;;;9.43;100.00
70407;BME280;57821;52.202;0.154;2023-04-02T10:36:05;102752.91;;;9.42;91.66
70407;BME280;57821;52.202;0.154;2023-04-02T10:41:28;102764.69;;;9.34;96.73
70407;BME280;57821;52.202;0.154;2023-04-02T10:49:15;102776.34;;;9.47;94.51
70407;BME280;57821;52.202;0.154;2023-04-02T10:51:55;102777.22;;;9.74;96.85
70407;BME280;57821;52.202;0.154;2023-04-02T10:54:35;102774.97;;;10.13;96.68
70407;BME280;57821;52.202;0.154;2023-04-02T10:57:09;102784.81;;;10.52;92.21
70407;BME280;57821;52.202;0.154;2023-04-02T10:59:42;102782.25;;;10.85;90.04
70407;BME280;57821;52.202;0.154;2023-04-02T11:05:39;102784.03;;;11.51;89.31
70407;BME280;57821;52.202;0.154;2023-04-02T11:10:47;102777.16;;;12.28;83.57
70407;BME280;57821;52.202;0.154;2023-04-02T11:16:23;102788.25;;;13.07;83.12
70407;BME280;57821;52.202;0.154;2023-04-02T11:21:48;102778.97;;;13.72;83.59
70407;BME280;57821;52.202;0.154;2023-04-02T11:29:30;102795.91;;;14.63;72.42
70407;BME280;57821;52.202;0.154;2023-04-02T11:37:44;102793.19;;;14.54;65.94
70407;BME280;57821;52.202;0.154;2023-04-02T11:42:39;102817.16;;;14.26;66.08
70407;BME280;57821;52.202;0.154;2023-04-02T11:53:20;102809.00;;;14.05;69.26
70407;BME280;57821;52.202;0.154;2023-04-02T11:58:55;102813.25;;;13.96;67.19
70407;BME280;57821;52.202;0.154;2023-04-02T12:01:49;102816.00;;;14.07;68.64
70407;BME280;57821;52.202;0.154;2023-04-02T12:09:49;102825.28;;;13.88;64.90
70407;BME280;57821;52.202;0.154;2023-04-02T12:14:51;102827.69;;;13.76;61.09
70407;BME280;57821;52.202;0.154;2023-04-02T12:17:33;102830.34;;;13.78;64.65
70407;BME280;57821;52.202;0.154;2023-04-02T12:22:34;102832.25;;;13.89;62.63
70407;BME280;57821;52.202;0.154;2023-04-02T12:25:06;102832.38;;;13.98;62.22
70407;BME280;57821;52.202;0.154;2023-04-02T12:27:45;102841.25;;;14.10;61.67
70407;BME280;57821;52.202;0.154;2023-04-02T12:30:19;102838.63;;;14.10;62.63
70407;BME280;57821;52.202;0.154;2023-04-02T12:32:46;102840.38;;;14.08;60.88
70407;BME280;57821;52.202;0.154;2023-04-02T12:35:32;102852.47;;;14.03;64.88
70407;BME280;57821;52.202;0.154;2023-04-02T12:37:59;102855.16;;;14.09;60.58
70407;BME280;57821;52.202;0.154;2023-04-02T12:40:27;102855.06;;;14.03;60.33
70407;BME280;57821;52.202;0.154;2023-04-02T12:42:53;102854.88;;;13.90;60.61
70407;BME280;57821;52.202;0.154;2023-04-02T12:45:28;102849.63;;;13.89;64.28
70407;BME280;57821;52.202;0.154;2023-04-02T12:47:56;102862.91;;;14.04;61.09
70407;BME280;57821;52.202;0.154;2023-04-02T12:50:23;102860.47;;;14.15;59.70
70407;BME280;57821;52.202;0.154;2023-04-02T12:52:51;102865.88;;;14.28;60.65
70407;BME280;57821;52.202;0.154;2023-04-02T12:55:21;102845.94;;;14.32;59.49
70407;BME280;57821;52.202;0.154;2023-04-02T12:57:54;102848.56;;;14.35;59.76
70407;BME280;57821;52.202;0.154;2023-04-02T13:03:14;102859.88;;;14.35;58.54
70407;BME280;57821;52.202;0.154;2023-04-02T13:05:45;102859.13;;;14.41;58.27
70407;BME280;57821;52.202;0.154;2023-04-02T13:08:37;102847.88;;;14.45;57.10
70407;BME280;57821;52.202;0.154;2023-04-02T13:11:06;102853.00;;;14.37;56.91
70407;BME280;57821;52.202;0.154;2023-04-02T13:13:34;102851.94;;;14.26;56.07
70407;BME280;57821;52.202;0.154;2023-04-02T13:18:45;102850.06;;;14.18;56.59
70407;BME280;57821;52.202;0.154;2023-04-02T13:23:42;102868.47;;;14.28;55.05
70407;BME280;57821;52.202;0.154;2023-04-02T13:26:16;102863.28;;;14.30;55.89
70407;BME280;57821;52.202;0.154;2023-04-02T13:29:02;102853.78;;;14.35;53.62
70407;BME280;57821;52.202;0.154;2023-04-02T13:31:30;102856.44;;;14.36;53.55
70407;BME280;57821;52.202;0.154;2023-04-02T13:33:57;102863.63;;;14.50;52.96
70407;BME280;57821;52.202;0.154;2023-04-02T13:36:24;102869.00;;;14.63;52.37
70407;BME280;57821;52.202;0.154;2023-04-02T13:38:51;102859.31;;;14.56;50.76
70407;BME280;57821;52.202;0.154;2023-04-02T13:41:21;102862.84;;;14.58;50.87
70407;BME280;57821;52.202;0.154;2023-04-02T13:43:51;102861.25;;;14.69;50.71
70407;BME280;57821;52.202;0.154;2023-04-02T13:46:24;102866.78;;;14.94;51.37
70407;BME280;57821;52.202;0.154;2023-04-02T13:48:53;102858.28;;;15.13;50.85
70407;BME280;57821;52.202;0.154;2023-04-02T13:51:22;102867.31;;;15.45;50.85
70407;BME280;57821;52.202;0.154;2023-04-02T13:53:54;102868.53;;;15.81;50.34
70407;BME280;57821;52.202;0.154;2023-04-02T13:56:40;102877.38;;;15.93;48.85
70407;BME280;57821;52.202;0.154;2023-04-02T13:59:27;102875.47;;;15.74;48.67
70407;BME280;57821;52.202;0.154;2023-04-02T14:02:17;102887.38;;;15.46;47.34
70407;BME280;57821;52.202;0.154;2023-04-02T14:08:31;102884.75;;;15.46;45.39
70407;BME280;57821;52.202;0.154;2023-04-02T14:11:39;102880.13;;;15.21;47.65
70407;BME280;57821;52.202;0.154;2023-04-02T14:14:57;102884.44;;;15.16;48.19
70407;BME280;57821;52.202;0.154;2023-04-02T14:39:43;102889.78;;;16.23;45.76
70407;BME280;57821;52.202;0.154;2023-04-02T14:45:58;102873.59;;;16.97;45.39
70407;BME280;57821;52.202;0.154;2023-04-02T14:48:53;102884.22;;;17.52;43.39
70407;BME280;57821;52.202;0.154;2023-04-02T14:51:48;102868.53;;;17.81;45.25
70407;BME280;57821;52.202;0.154;2023-04-02T14:55:00;102878.94;;;18.35;40.80
70407;BME280;57821;52.202;0.154;2023-04-02T14:57:51;102877.16;;;18.46;43.42
70407;BME280;57821;52.202;0.154;2023-04-02T15:00:45;102876.28;;;18.47;42.70
70407;BME280;57821;52.202;0.154;2023-04-02T15:03:46;102877.19;;;18.39;42.15
70407;BME280;57821;52.202;0.154;2023-04-02T15:06:43;102891.22;;;18.32;42.22
70407;BME280;57821;52.202;0.154;2023-04-02T15:09:36;102879.00;;;18.11;42.41
70407;BME280;57821;52.202;0.154;2023-04-02T15:12:27;102892.13;;;17.85;41.20
70407;BME280;57821;52.202;0.154;2023-04-02T15:15:39;102872.88;;;17.57;42.49
70407;BME280;57821;52.202;0.154;2023-04-02T15:18:27;102892.09;;;17.50;42.50
70407;BME280;57821;52.202;0.154;2023-04-02T15:27:44;102883.28;;;17.21;42.10
70407;BME280;57821;52.202;0.154;2023-04-02T15:30:36;102894.69;;;17.49;42.16
70407;BME280;57821;52.202;0.154;2023-04-02T15:36:43;102888.66;;;17.76;41.06
70407;BME280;57821;52.202;0.154;2023-04-02T15:39:42;102882.53;;;17.93;41.01
70407;BME280;57821;52.202;0.154;2023-04-02T15:42:38;102880.78;;;17.88;39.55
70407;BME280;57821;52.202;0.154;2023-04-02T15:49:11;102889.44;;;17.37;40.11
70407;BME280;57821;52.202;0.154;2023-04-02T15:52:30;102892.91;;;17.17;41.18
70407;BME280;57821;52.202;0.154;2023-04-02T15:55:39;102893.78;;;17.22;41.73
70407;BME280;57821;52.202;0.154;2023-04-02T16:02:19;102909.63;;;17.62;39.74
70407;BME280;57821;52.202;0.154;2023-04-02T16:11:30;102911.38;;;18.07;39.27
70407;BME280;57821;52.202;0.154;2023-04-02T16:14:23;102909.59;;;18.33;37.60
70407;BME280;57821;52.202;0.154;2023-04-02T16:17:36;102912.19;;;18.59;39.20
70407;BME280;57821;52.202;0.154;2023-04-02T16:20:33;102909.28;;;19.24;38.70
70407;BME280;57821;52.202;0.154;2023-04-02T16:23:33;102921.31;;;19.68;38.01
70407;BME280;57821;52.202;0.154;2023-04-02T16:26:42;102913.63;;;19.30;37.43
70407;BME280;57821;52.202;0.154;2023-04-02T16:33:19;102918.88;;;19.33;38.19
70407;BME280;57821;52.202;0.154;2023-04-02T16:42:23;102910.38;;;20.96;35.50
70407;BME280;57821;52.202;0.154;2023-04-02T17:09:40;102955.59;;;21.94;32.82
70407;BME280;57821;52.202;0.154;2023-04-02T17:12:34;102957.13;;;22.09;31.64
70407;BME280;57821;52.202;0.154;2023-04-02T17:15:25;102969.41;;;22.13;33.05
70407;BME280;57821;52.202;0.154;2023-04-02T17:18:19;102973.81;;;22.13;32.75
70407;BME280;57821;52.202;0.154;2023-04-02T17:21:11;102966.81;;;22.08;31.91
70407;BME280;57821;52.202;0.154;2023-04-02T17:24:13;102964.50;;;21.87;32.60
70407;BME280;57821;52.202;0.154;2023-04-02T17:27:11;102972.41;;;21.29;32.58
70407;BME280;57821;52.202;0.154;2023-04-02T17:30:17;102981.56;;;20.06;32.65
70407;BME280;57821;52.202;0.154;2023-04-02T17:33:16;102977.81;;;18.82;34.64
70407;BME280;57821;52.202;0.154;2023-04-02T17:42:12;102970.94;;;16.23;37.84
70407;BME280;57821;52.202;0.154;2023-04-02T17:45:25;102976.16;;;15.39;39.57
70407;BME280;57821;52.202;0.154;2023-04-02T17:51:27;102988.38;;;14.19;41.19
70407;BME280;57821;52.202;0.154;2023-04-02T17:57:41;102990.13;;;13.27;43.66
70407;BME280;57821;52.202;0.154;2023-04-02T18:00:40;102996.16;;;12.87;45.09
70407;BME280;57821;52.202;0.154;2023-04-02T18:03:34;103005.69;;;12.49;44.28
70407;BME280;57821;52.202;0.154;2023-04-02T18:06:45;103003.75;;;12.06;45.65
70407;BME280;57821;52.202;0.154;2023-04-02T18:16:23;103021.19;;;11.18;47.90